Time;durP1;ratioP1;P1;durP2;ratioP2;P2;SDS_P1;SDS_P2;PMS_P1;PMS_P2;Temp;Humidity;BMP_temperature;BMP_pressure;BME280_temperature;BME280_humidity;BME280_pressure;Samples;Min_cycle;Max_cycle;Signal;HPM_P1;HPM_P2
2022/09/20 00:01:05;;;;;;;4.32;2.50;;;10.40;99.90;;;;;;5005001;28;20296;-72
2022/09/20 00:03:32;;;;;;;5.05;2.50;;;10.30;99.90;;;;;;5007505;28;20193;-72
2022/09/20 00:06:02;;;;;;;3.65;2.25;;;10.40;99.90;;;;;;5009857;28;20236;-72
2022/09/20 00:08:29;;;;;;;6.53;2.85;;;10.30;99.90;;;;;;5010962;28;20208;-72
2022/09/20 00:11:00;;;;;;;5.53;2.78;;;10.30;99.90;;;;;;5008252;28;20307;-72
2022/09/20 00:13:28;;;;;;;5.18;3.38;;;10.30;99.90;;;;;;5010977;28;20223;-72
2022/09/20 00:15:56;;;;;;;5.25;2.95;;;10.30;99.90;;;;;;5010096;28;20320;-72
2022/09/20 00:18:23;;;;;;;3.67;2.60;;;10.30;99.90;;;;;;5009680;28;20207;-71
2022/09/20 00:20:51;;;;;;;4.22;2.72;;;10.20;99.90;;;;;;5009141;28;20208;-72
2022/09/20 00:23:19;;;;;;;3.72;2.75;;;10.20;99.90;;;;;;5010690;28;20201;-72
2022/09/20 00:25:55;;;;;;;5.18;3.08;;;10.10;99.90;;;;;;5010163;28;20266;-72
2022/09/20 00:28:23;;;;;;;3.70;2.50;;;10.10;99.90;;;;;;5005844;28;20209;-72
2022/09/20 00:30:50;;;;;;;6.55;3.00;;;10.00;99.90;;;;;;5008603;28;20249;-72
2022/09/20 00:33:17;;;;;;;3.72;2.60;;;10.00;99.90;;;;;;5010377;28;20571;-72
2022/09/20 00:35:44;;;;;;;3.50;2.92;;;10.00;99.90;;;;;;5010082;28;20220;-72
2022/09/20 00:38:12;;;;;;;5.03;3.42;;;10.00;99.90;;;;;;5009619;28;20227;-72
2022/09/20 00:40:41;;;;;;;3.70;2.60;;;10.10;99.90;;;;;;5000744;28;20568;-72
2022/09/20 00:43:15;;;;;;;4.30;3.00;;;10.10;99.90;;;;;;5011665;28;20200;-71
2022/09/20 00:45:42;;;;;;;2.85;2.10;;;10.10;99.90;;;;;;5010774;28;20211;-72
2022/09/20 00:48:15;;;;;;;3.20;2.47;;;10.10;99.90;;;;;;5007111;28;20669;-71
2022/09/20 00:50:45;;;;;;;5.03;2.60;;;10.10;99.90;;;;;;5011458;28;20207;-72
2022/09/20 00:53:16;;;;;;;2.85;2.13;;;10.20;99.90;;;;;;5003849;28;20314;-72
2022/09/20 00:55:49;;;;;;;2.58;2.20;;;10.20;99.90;;;;;;5009482;28;20311;-72
2022/09/20 00:58:19;;;;;;;3.00;2.20;;;10.20;99.90;;;;;;5009651;28;20204;-72
2022/09/20 01:00:47;;;;;;;2.25;1.80;;;10.20;99.90;;;;;;5008569;28;20254;-72
2022/09/20 01:03:15;;;;;;;3.95;2.78;;;10.20;99.90;;;;;;5008330;28;20211;-72
2022/09/20 01:05:44;;;;;;;5.78;2.53;;;10.20;99.90;;;;;;5008984;28;20332;-72
2022/09/20 01:08:12;;;;;;;4.47;2.50;;;10.30;99.90;;;;;;5006993;28;20211;-72
2022/09/20 01:10:39;;;;;;;3.63;2.30;;;10.30;99.90;;;;;;5010960;28;20209;-72
2022/09/20 01:13:08;;;;;;;2.90;2.10;;;10.30;99.90;;;;;;5008710;28;20291;-72
2022/09/20 01:15:38;;;;;;;4.43;2.30;;;10.40;99.90;;;;;;5010173;28;20225;-71
2022/09/20 01:18:07;;;;;;;3.25;1.90;;;10.40;99.90;;;;;;5002212;28;20194;-71
2022/09/20 01:20:36;;;;;;;4.35;2.25;;;10.40;99.90;;;;;;5007988;28;20240;-71
2022/09/20 01:23:26;;;;;;;2.50;1.70;;;10.40;99.90;;;;;;5009572;28;20699;-72
2022/09/20 01:26:19;;;;;;;4.15;2.25;;;10.50;99.90;;;;;;5007623;28;20696;-72
2022/09/20 01:28:50;;;;;;;2.70;2.08;;;10.50;99.90;;;;;;5007317;28;20210;-72
2022/09/20 01:31:23;;;;;;;3.67;1.90;;;10.50;99.90;;;;;;5008696;28;20676;-72
2022/09/20 01:33:53;;;;;;;4.40;2.10;;;10.50;99.90;;;;;;5008667;28;20627;-72
2022/09/20 01:36:26;;;;;;;2.40;1.80;;;10.60;99.90;;;;;;5005224;28;20248;-72
2022/09/20 01:39:01;;;;;;;4.40;2.00;;;10.60;99.90;;;;;;5008944;28;20287;-71
2022/09/20 01:41:33;;;;;;;3.90;1.75;;;10.60;99.90;;;;;;5010067;28;20198;-72
2022/09/20 01:44:09;;;;;;;2.92;1.95;;;10.60;99.90;;;;;;5009545;28;20212;-71
2022/09/20 01:46:37;;;;;;;5.65;2.17;;;10.60;99.90;;;;;;5000242;28;20317;-71
2022/09/20 01:49:15;;;;;;;3.95;1.70;;;10.60;99.90;;;;;;5014859;28;20609;-72
2022/09/20 01:52:27;;;;;;;4.00;1.92;;;10.70;99.90;;;;;;5013891;28;20198;-71
2022/09/20 01:55:18;;;;;;;3.17;1.83;;;10.60;99.90;;;;;;4973581;28;20275;-72
2022/09/20 01:58:08;;;;;;;3.72;1.90;;;10.60;99.90;;;;;;5013185;28;20251;-71
2022/09/20 02:00:55;;;;;;;5.00;1.90;;;10.60;99.90;;;;;;5005542;28;20196;-71
2022/09/20 02:03:48;;;;;;;5.63;2.05;;;10.70;99.90;;;;;;5007462;28;20202;-71
2022/09/20 02:06:28;;;;;;;4.38;2.38;;;10.70;99.90;;;;;;5010595;28;20653;-71
2022/09/20 02:09:24;;;;;;;4.03;2.00;;;10.70;99.90;;;;;;5013263;28;20284;-71
2022/09/20 02:12:15;;;;;;;3.55;1.77;;;10.70;99.90;;;;;;5013094;28;20591;-71
2022/09/20 02:14:52;;;;;;;5.22;1.90;;;10.60;99.90;;;;;;5011321;28;20305;-72
2022/09/20 02:17:27;;;;;;;3.75;1.90;;;10.60;99.90;;;;;;5014084;28;20268;-71
2022/09/20 02:20:07;;;;;;;3.13;1.75;;;10.60;99.90;;;;;;5011784;28;22694;-71
2022/09/20 02:22:45;;;;;;;3.00;2.00;;;10.60;99.90;;;;;;5012387;28;20206;-71
2022/09/20 02:25:23;;;;;;;3.92;1.98;;;10.60;99.90;;;;;;5012251;28;20257;-72
2022/09/20 02:28:11;;;;;;;4.05;2.22;;;10.60;99.90;;;;;;5012658;28;20335;-71
2022/09/20 02:30:49;;;;;;;4.75;2.15;;;10.60;99.90;;;;;;5009391;28;20205;-71
2022/09/20 02:33:38;;;;;;;3.20;1.77;;;10.60;99.90;;;;;;5012715;28;20297;-72
2022/09/20 02:36:21;;;;;;;3.67;1.90;;;10.60;99.90;;;;;;5009754;28;20212;-71
2022/09/20 02:38:59;;;;;;;4.72;1.90;;;10.60;99.90;;;;;;5011597;28;20289;-72
2022/09/20 02:41:54;;;;;;;3.25;1.85;;;10.60;99.90;;;;;;5012699;28;20229;-71
2022/09/20 02:44:34;;;;;;;5.00;2.58;;;10.60;99.90;;;;;;5008227;28;20230;-71
2022/09/20 02:47:09;;;;;;;3.40;1.85;;;10.60;99.90;;;;;;5007336;28;20245;-71
2022/09/20 02:49:51;;;;;;;3.05;2.10;;;10.60;99.90;;;;;;5009625;28;20207;-71
2022/09/20 02:52:26;;;;;;;4.25;2.20;;;10.60;99.90;;;;;;5010459;28;20201;-71
2022/09/20 02:54:59;;;;;;;3.67;1.88;;;10.60;99.90;;;;;;5010456;28;20252;-71
2022/09/20 02:57:36;;;;;;;6.43;2.55;;;10.50;99.90;;;;;;5011930;28;20221;-71
2022/09/20 03:00:07;;;;;;;4.00;2.00;;;10.50;99.90;;;;;;5007466;28;20198;-71
2022/09/20 03:02:49;;;;;;;4.38;2.15;;;10.50;99.90;;;;;;5011621;28;20602;-71
2022/09/20 03:05:22;;;;;;;3.53;2.20;;;10.50;99.90;;;;;;5010894;28;20238;-71
2022/09/20 03:08:04;;;;;;;4.00;2.05;;;10.40;99.90;;;;;;5008214;28;20231;-71
2022/09/20 03:10:38;;;;;;;3.58;2.10;;;10.40;99.90;;;;;;5012652;28;20202;-72
2022/09/20 03:13:18;;;;;;;3.08;2.05;;;10.30;99.90;;;;;;5010320;28;20228;-71
2022/09/20 03:15:57;;;;;;;4.18;2.03;;;10.30;99.90;;;;;;5011408;28;20305;-71
2022/09/20 03:18:33;;;;;;;4.25;2.33;;;10.30;99.90;;;;;;5010303;28;20306;-71
2022/09/20 03:21:11;;;;;;;6.32;2.25;;;10.30;99.90;;;;;;5012452;28;20220;-71
2022/09/20 03:23:50;;;;;;;3.55;2.20;;;10.30;99.90;;;;;;5012184;28;20605;-71
2022/09/20 03:26:30;;;;;;;4.50;1.90;;;10.30;99.90;;;;;;5004972;28;20200;-71
2022/09/20 03:29:04;;;;;;;5.03;2.35;;;10.30;99.90;;;;;;5010099;28;20208;-71
2022/09/20 03:31:49;;;;;;;3.17;1.80;;;10.30;99.90;;;;;;5010104;28;20200;-71
2022/09/20 03:34:32;;;;;;;3.13;1.80;;;10.30;99.90;;;;;;5008538;28;20720;-71
2022/09/20 03:37:15;;;;;;;5.07;1.67;;;10.30;99.90;;;;;;5010784;28;20731;-71
2022/09/20 03:40:32;;;;;;;5.70;2.05;;;10.40;99.90;;;;;;5012367;28;20220;-72
2022/09/20 03:43:13;;;;;;;4.55;2.10;;;10.40;99.90;;;;;;4923254;29;20196;-71
2022/09/20 03:46:00;;;;;;;6.05;2.20;;;10.40;99.90;;;;;;4920152;29;20248;-72
2022/09/20 03:48:56;;;;;;;3.72;1.70;;;10.40;99.90;;;;;;4997294;28;20237;-71
2022/09/20 03:51:29;;;;;;;3.30;1.88;;;10.40;99.90;;;;;;5004862;28;20252;-72
2022/09/20 03:54:30;;;;;;;4.28;1.92;;;10.40;99.90;;;;;;5009916;28;20295;-72
2022/09/20 03:57:29;;;;;;;3.00;2.15;;;10.50;99.90;;;;;;5009794;28;20291;-72
2022/09/20 04:00:25;;;;;;;2.55;1.80;;;10.50;99.90;;;;;;4987058;28;20201;-72
2022/09/20 04:03:17;;;;;;;5.97;2.63;;;10.50;99.90;;;;;;5007800;28;20206;-72
2022/09/20 04:06:04;;;;;;;4.13;2.67;;;10.50;99.90;;;;;;5005260;28;20201;-72
2022/09/20 04:08:55;;;;;;;4.15;3.03;;;10.50;99.90;;;;;;5004577;28;20316;-72
2022/09/20 04:11:32;;;;;;;5.25;2.47;;;10.50;99.90;;;;;;5007894;28;20208;-72
2022/09/20 04:14:09;;;;;;;3.28;2.10;;;10.50;99.90;;;;;;5010724;28;20746;-70
2022/09/20 04:16:44;;;;;;;4.55;2.30;;;10.50;99.90;;;;;;5008316;28;20197;-71
2022/09/20 04:19:17;;;;;;;5.47;2.72;;;10.50;99.90;;;;;;5009847;28;20737;-70
2022/09/20 04:21:53;;;;;;;5.47;2.38;;;10.50;99.90;;;;;;5015332;28;20201;-71
2022/09/20 04:24:25;;;;;;;2.42;2.20;;;10.50;99.90;;;;;;5007760;28;20227;-71
2022/09/20 04:27:00;;;;;;;3.60;2.10;;;10.40;99.90;;;;;;5005109;28;20663;-71
2022/09/20 04:29:34;;;;;;;5.30;2.42;;;10.40;99.90;;;;;;5020684;28;20612;-71
2022/09/20 04:32:11;;;;;;;4.80;2.72;;;10.40;99.90;;;;;;5013186;28;20200;-70
2022/09/20 04:37:32;;;;;;;4.07;2.70;;;10.30;99.90;;;;;;4995183;28;20225;-71
2022/09/20 04:40:13;;;;;;;4.68;2.33;;;10.30;99.90;;;;;;5004421;28;20201;-76
2022/09/20 04:43:23;;;;;;;6.72;2.17;;;10.30;99.90;;;;;;5002299;28;20332;-72
2022/09/20 04:46:34;;;;;;;2.80;2.10;;;10.40;99.90;;;;;;5004973;28;20334;-73
2022/09/20 04:49:32;;;;;;;4.90;2.35;;;10.50;99.90;;;;;;4983656;28;20308;-72
2022/09/20 04:52:48;;;;;;;3.60;2.20;;;10.50;99.90;;;;;;4999274;28;20281;-72
2022/09/20 04:55:54;;;;;;;4.70;2.47;;;10.50;99.90;;;;;;4984601;28;20228;-72
2022/09/20 04:59:07;;;;;;;4.55;2.30;;;10.40;99.90;;;;;;4978879;28;20283;-71
2022/09/20 05:01:58;;;;;;;4.60;2.60;;;10.40;99.90;;;;;;5006584;28;20201;-71
2022/09/20 05:05:03;;;;;;;4.25;2.30;;;10.30;99.90;;;;;;5004530;28;20217;-72
2022/09/20 05:08:09;;;;;;;5.75;2.90;;;10.30;99.90;;;;;;5008538;28;20229;-72
2022/09/20 05:11:07;;;;;;;6.47;2.80;;;10.20;99.90;;;;;;5010258;28;20239;-72
2022/09/20 05:13:48;;;;;;;3.97;2.20;;;10.10;99.90;;;;;;4997880;28;20220;-72
2022/09/20 05:16:21;;;;;;;6.22;2.65;;;10.10;99.90;;;;;;5003138;28;20204;-72
2022/09/20 05:19:13;;;;;;;4.55;2.75;;;10.10;99.90;;;;;;5011337;28;20194;-72
2022/09/20 05:22:26;;;;;;;3.70;2.30;;;10.00;99.90;;;;;;5005190;28;20224;-72
2022/09/20 05:25:14;;;;;;;5.45;2.55;;;10.00;99.90;;;;;;4997540;28;20343;-72
2022/09/20 05:27:47;;;;;;;5.25;2.80;;;9.90;99.90;;;;;;5009885;28;20220;-72
2022/09/20 05:30:25;;;;;;;7.55;3.00;;;9.90;99.90;;;;;;5006809;28;20272;-72
2022/09/20 05:33:07;;;;;;;4.88;2.20;;;9.80;99.90;;;;;;5010853;28;20207;-73
2022/09/20 05:35:42;;;;;;;5.88;2.78;;;9.80;99.90;;;;;;5005322;28;20253;-73
2022/09/20 05:38:18;;;;;;;3.97;2.33;;;9.80;99.90;;;;;;5008966;28;20289;-72
2022/09/20 05:41:09;;;;;;;5.15;2.67;;;9.80;99.90;;;;;;5007650;28;20196;-72
2022/09/20 05:43:48;;;;;;;7.43;3.58;;;9.80;99.90;;;;;;5019355;28;20287;-73
2022/09/20 05:46:22;;;;;;;9.88;2.75;;;9.90;99.90;;;;;;5004030;28;20226;-72
2022/09/20 05:48:58;;;;;;;5.00;2.10;;;9.80;99.90;;;;;;4996674;28;20260;-72
2022/09/20 05:51:41;;;;;;;4.00;2.10;;;9.90;99.90;;;;;;4996362;28;20283;-72
2022/09/20 05:54:24;;;;;;;7.07;2.60;;;10.00;99.90;;;;;;5003580;28;20307;-73
2022/09/20 05:56:59;;;;;;;3.53;2.60;;;10.00;99.90;;;;;;5003289;28;20197;-72
2022/09/20 05:59:37;;;;;;;5.30;2.63;;;10.00;99.90;;;;;;4997571;28;20207;-72
2022/09/20 06:02:20;;;;;;;3.63;2.60;;;10.00;99.90;;;;;;5004634;28;20237;-72
2022/09/20 06:04:56;;;;;;;5.25;2.85;;;10.00;99.90;;;;;;5006560;28;20231;-72
2022/09/20 06:07:37;;;;;;;5.45;3.35;;;10.10;99.90;;;;;;5013403;28;20203;-73
2022/09/20 06:10:29;;;;;;;4.50;2.78;;;10.10;99.90;;;;;;5004524;28;20288;-73
2022/09/20 06:13:04;;;;;;;5.10;3.70;;;10.20;99.90;;;;;;5017100;28;20205;-74
2022/09/20 06:15:43;;;;;;;2.75;2.30;;;10.20;99.90;;;;;;5005754;28;20233;-74
2022/09/20 06:18:23;;;;;;;3.92;2.72;;;10.20;99.90;;;;;;5001758;28;20557;-73
2022/09/20 06:21:03;;;;;;;4.93;2.90;;;10.30;99.90;;;;;;5002984;28;20280;-73
2022/09/20 06:23:32;;;;;;;4.05;2.60;;;10.40;99.90;;;;;;5008406;28;20348;-74
2022/09/20 06:26:06;;;;;;;5.95;3.10;;;10.50;99.90;;;;;;5008386;28;20224;-81
2022/09/20 06:28:35;;;;;;;6.85;3.40;;;10.60;99.90;;;;;;5000571;28;20224;-81
2022/09/20 06:31:08;;;;;;;7.35;3.33;;;10.80;99.90;;;;;;4999837;28;20693;-74
2022/09/20 06:33:43;;;;;;;4.32;2.65;;;11.00;99.90;;;;;;5005962;28;20551;-74
2022/09/20 06:41:57;;;;;;;5.47;2.83;;;12.40;99.90;;;;;;5010509;28;20278;-74
2022/09/20 06:44:24;;;;;;;3.30;2.43;;;12.80;99.90;;;;;;5009695;28;20990;-74
2022/09/20 06:46:52;;;;;;;3.70;2.37;;;13.00;99.90;;;;;;5008048;28;20860;-74
2022/09/20 06:49:19;;;;;;;5.60;2.27;;;13.20;99.90;;;;;;5002313;28;20989;-74
2022/09/20 06:51:49;;;;;;;6.50;2.90;;;13.20;99.90;;;;;;5009106;28;20547;-74
2022/09/20 06:54:19;;;;;;;5.87;2.57;;;13.40;99.90;;;;;;5006750;28;20472;-73
2022/09/20 06:56:47;;;;;;;3.40;2.40;;;13.50;99.90;;;;;;5009853;28;20981;-74
2022/09/20 06:59:14;;;;;;;4.80;2.67;;;13.70;99.90;;;;;;5008601;28;21048;-73
2022/09/20 07:01:42;;;;;;;4.50;2.40;;;13.80;99.90;;;;;;5010192;28;20968;-73
2022/09/20 07:04:09;;;;;;;5.53;2.50;;;14.00;99.90;;;;;;5008108;28;21021;-75
2022/09/20 07:06:36;;;;;;;3.77;2.33;;;14.10;99.90;;;;;;5011954;28;20467;-74
2022/09/20 07:09:05;;;;;;;4.47;3.00;;;14.20;99.90;;;;;;5016817;28;21061;-74
2022/09/20 07:11:33;;;;;;;5.83;2.93;;;14.50;99.90;;;;;;5021916;28;20539;-74
2022/09/20 07:14:01;;;;;;;4.13;2.70;;;14.80;99.90;;;;;;5021073;28;20477;-74
2022/09/20 07:16:28;;;;;;;4.57;2.57;;;15.00;99.90;;;;;;5021824;28;20464;-74
2022/09/20 07:18:56;;;;;;;6.53;2.50;;;15.30;99.90;;;;;;5010198;28;20514;-74
2022/09/20 07:21:23;;;;;;;4.60;3.00;;;15.50;99.90;;;;;;5008137;28;20461;-73
2022/09/20 07:23:50;;;;;;;4.47;2.40;;;15.70;99.90;;;;;;5010678;28;20504;-73
2022/09/20 07:26:20;;;;;;;4.27;2.47;;;15.80;99.90;;;;;;5019834;28;20460;-74
2022/09/20 07:28:48;;;;;;;2.80;2.33;;;16.00;99.90;;;;;;5010558;28;20477;-74
2022/09/20 07:31:15;;;;;;;5.77;2.60;;;16.20;99.90;;;;;;5007745;28;20453;-73
2022/09/20 07:33:42;;;;;;;5.67;3.00;;;16.60;99.90;;;;;;5009445;28;20495;-73
2022/09/20 07:36:11;;;;;;;6.83;2.60;;;17.10;99.90;;;;;;5020188;28;20535;-73
2022/09/20 07:38:38;;;;;;;7.80;3.30;;;17.50;99.90;;;;;;5013999;28;20460;-73
2022/09/20 07:41:06;;;;;;;4.90;2.70;;;17.80;99.90;;;;;;5013203;28;20526;-74
2022/09/20 07:43:34;;;;;;;4.87;3.00;;;17.90;99.90;;;;;;5013201;28;20543;-73
2022/09/20 07:46:01;;;;;;;5.00;2.60;;;18.00;99.90;;;;;;5008685;28;21019;-73
2022/09/20 07:48:30;;;;;;;3.37;2.20;;;18.10;99.90;;;;;;5009487;28;20500;-74
2022/09/20 07:51:01;;;;;;;3.60;2.13;;;18.30;99.90;;;;;;5013272;28;20453;-75
2022/09/20 07:53:29;;;;;;;5.43;2.63;;;18.10;99.90;;;;;;5008307;28;20523;-73
2022/09/20 07:55:58;;;;;;;6.40;2.37;;;18.10;99.90;;;;;;5007995;28;20493;-74
2022/09/20 07:58:25;;;;;;;3.83;2.23;;;18.30;99.90;;;;;;5012411;28;20450;-74
2022/09/20 08:00:55;;;;;;;2.87;2.20;;;18.50;99.90;;;;;;5007365;28;20499;-74
2022/09/20 08:03:22;;;;;;;4.00;2.27;;;18.60;99.90;;;;;;5009782;28;20481;-74
2022/09/20 08:05:49;;;;;;;3.60;2.33;;;18.70;99.90;;;;;;5009560;28;20490;-74
2022/09/20 08:08:17;;;;;;;5.20;2.57;;;18.80;99.90;;;;;;5007202;28;20583;-74
2022/09/20 08:10:44;;;;;;;3.90;2.20;;;19.10;99.90;;;;;;5007390;28;20464;-74
2022/09/20 08:13:13;;;;;;;4.30;2.50;;;19.20;99.90;;;;;;5006452;28;20558;-74
2022/09/20 08:15:40;;;;;;;3.80;2.27;;;18.80;99.90;;;;;;5010117;28;20484;-74
2022/09/20 08:18:10;;;;;;;3.30;1.90;;;18.50;99.90;;;;;;5009527;28;20484;-74
2022/09/20 08:20:37;;;;;;;3.00;1.90;;;18.10;99.90;;;;;;5008411;28;20457;-74
2022/09/20 08:23:05;;;;;;;4.77;2.13;;;18.00;99.90;;;;;;5005577;28;20575;-74
2022/09/20 08:25:32;;;;;;;5.10;2.80;;;18.30;99.90;;;;;;4998195;28;20461;-74
2022/09/20 08:27:59;;;;;;;6.10;2.20;;;18.70;99.90;;;;;;5013691;28;20543;-74
2022/09/20 08:30:27;;;;;;;2.40;1.53;;;18.90;99.90;;;;;;5017149;28;20590;-74
2022/09/20 08:32:54;;;;;;;5.37;1.90;;;19.20;99.90;;;;;;5007149;28;20552;-74
2022/09/20 08:35:24;;;;;;;3.00;1.70;;;19.50;99.90;;;;;;5005899;28;20463;-74
2022/09/20 08:37:54;;;;;;;4.80;1.90;;;19.80;99.90;;;;;;5006886;28;20465;-74
2022/09/20 08:40:23;;;;;;;3.40;1.70;;;20.10;99.90;;;;;;5015794;28;21024;-74
2022/09/20 08:42:53;;;;;;;4.60;1.63;;;20.40;99.90;;;;;;5005843;28;20576;-74
2022/09/20 08:45:23;;;;;;;3.60;1.77;;;20.40;99.90;;;;;;5011718;28;20886;-75
2022/09/20 08:47:53;;;;;;;2.27;2.07;;;20.10;99.90;;;;;;5007519;28;20543;-74
2022/09/20 08:50:21;;;;;;;5.47;2.17;;;19.60;99.90;;;;;;5002594;28;20488;-74
2022/09/20 08:52:53;;;;;;;3.33;1.67;;;19.00;99.90;;;;;;5005722;28;20813;-73
2022/09/20 08:55:25;;;;;;;4.87;1.57;;;18.50;99.90;;;;;;5009353;28;20497;-73
2022/09/20 08:57:54;;;;;;;4.67;1.63;;;18.50;99.90;;;;;;5010111;28;20506;-73
2022/09/20 09:00:23;;;;;;;3.67;1.47;;;18.90;99.90;;;;;;5008346;28;20553;-74
2022/09/20 09:02:52;;;;;;;3.40;1.83;;;19.40;99.90;;;;;;5006060;28;20833;-74
2022/09/20 09:05:34;;;;;;;3.23;2.03;;;19.60;99.10;;;;;;5005446;28;20460;-74
2022/09/20 09:08:07;;;;;;;3.73;1.70;;;19.60;99.20;;;;;;5004904;28;21359;-73
2022/09/20 09:10:37;;;;;;;4.17;2.00;;;19.40;98.60;;;;;;5004009;28;20492;-73
2022/09/20 09:13:05;;;;;;;3.67;1.73;;;18.80;99.00;;;;;;5007180;28;20505;-73
2022/09/20 09:15:35;;;;;;;3.90;2.00;;;18.50;99.40;;;;;;5002445;28;20485;-74
2022/09/20 09:18:02;;;;;;;3.37;1.57;;;18.00;99.70;;;;;;5006175;28;20452;-75
2022/09/20 09:20:39;;;;;;;5.00;1.57;;;17.80;99.90;;;;;;5024947;28;20512;-75
2022/09/20 09:23:08;;;;;;;4.90;2.10;;;17.60;99.90;;;;;;5006894;28;20484;-75
2022/09/20 09:25:38;;;;;;;3.80;1.53;;;17.30;99.90;;;;;;5009982;28;20546;-75
2022/09/20 09:28:15;;;;;;;3.20;1.63;;;17.00;99.70;;;;;;5009191;28;20449;-75
2022/09/20 09:30:45;;;;;;;2.23;1.40;;;16.70;99.80;;;;;;5000573;28;20647;-75
2022/09/20 09:33:26;;;;;;;3.23;1.57;;;16.30;99.90;;;;;;5006004;28;20472;-75
2022/09/20 09:35:57;;;;;;;3.37;1.50;;;16.10;99.90;;;;;;5007467;28;20465;-75
2022/09/20 09:38:28;;;;;;;3.77;1.80;;;16.00;99.90;;;;;;5003474;28;20806;-74
2022/09/20 09:40:57;;;;;;;4.00;1.50;;;16.00;99.90;;;;;;5010742;28;20523;-75
2022/09/20 09:43:28;;;;;;;4.87;2.00;;;16.10;99.90;;;;;;5006202;28;21083;-76
2022/09/20 09:46:16;;;;;;;3.20;1.40;;;16.40;99.90;;;;;;5006446;28;21010;-75
2022/09/20 09:48:48;;;;;;;3.40;1.83;;;16.60;99.90;;;;;;5007808;28;20456;-75
2022/09/20 09:51:18;;;;;;;2.90;1.33;;;16.80;99.90;;;;;;5006482;28;20492;-80
2022/09/20 09:53:48;;;;;;;3.10;1.60;;;17.50;99.90;;;;;;5000923;28;20473;-80
2022/09/20 09:56:32;;;;;;;3.17;1.50;;;18.40;99.60;;;;;;5012177;28;20472;-75
2022/09/20 09:59:25;;;;;;;4.13;1.53;;;19.00;98.70;;;;;;5000531;28;20505;-75
2022/09/20 10:02:01;;;;;;;3.00;1.40;;;19.80;96.90;;;;;;5007593;28;20502;-75
2022/09/20 10:04:34;;;;;;;3.20;1.60;;;20.20;96.40;;;;;;4999135;28;20536;-76
2022/09/20 10:07:09;;;;;;;2.73;1.43;;;20.50;95.00;;;;;;4999635;28;20701;-75
2022/09/20 10:10:03;;;;;;;2.73;1.60;;;20.40;94.70;;;;;;5009093;28;20488;-74
2022/09/20 10:12:46;;;;;;;4.90;1.80;;;19.70;94.60;;;;;;5004717;28;20484;-73
2022/09/20 10:15:25;;;;;;;6.77;2.00;;;19.10;95.50;;;;;;5014564;28;20459;-73
2022/09/20 10:18:16;;;;;;;4.90;1.90;;;18.50;96.60;;;;;;5010027;28;20564;-74
2022/09/20 10:21:03;;;;;;;3.50;1.57;;;18.10;97.10;;;;;;4996531;28;20472;-73
2022/09/20 10:23:47;;;;;;;3.53;1.73;;;17.60;97.50;;;;;;5010079;28;20584;-74
2022/09/20 10:26:33;;;;;;;2.60;1.67;;;17.20;98.00;;;;;;5006294;28;20444;-74
2022/09/20 10:29:09;;;;;;;5.53;1.80;;;16.80;98.60;;;;;;5007008;28;20496;-74
2022/09/20 10:31:47;;;;;;;3.17;1.47;;;16.80;99.50;;;;;;5009560;28;20522;-74
2022/09/20 10:34:41;;;;;;;3.83;1.47;;;17.20;99.80;;;;;;5013562;28;20451;-74
2022/09/20 10:37:18;;;;;;;2.43;1.53;;;18.00;98.90;;;;;;5018826;28;20460;-75
2022/09/20 10:39:50;;;;;;;2.73;1.27;;;19.00;97.90;;;;;;5009861;28;20470;-74
2022/09/20 10:45:18;;;;;;;5.03;1.83;;;20.90;94.70;;;;;;5022708;28;20495;-75
2022/09/20 10:47:54;;;;;;;4.33;1.50;;;21.80;93.40;;;;;;5006839;28;20458;-74
2022/09/20 10:50:30;;;;;;;3.63;1.60;;;22.00;91.40;;;;;;5004809;28;20583;-74
2022/09/20 10:53:24;;;;;;;3.57;1.97;;;21.50;90.20;;;;;;5006008;28;20488;-75
2022/09/20 10:56:01;;;;;;;2.77;1.73;;;20.90;90.80;;;;;;5004894;28;20596;-74
2022/09/20 10:58:58;;;;;;;4.50;1.57;;;20.20;91.80;;;;;;5000948;28;20979;-74
2022/09/20 11:01:34;;;;;;;4.80;1.60;;;19.50;93.40;;;;;;5006002;28;20497;-74
2022/09/20 11:04:27;;;;;;;2.60;1.57;;;19.00;93.80;;;;;;5004661;28;20476;-74
2022/09/20 11:07:06;;;;;;;3.80;1.77;;;18.80;94.30;;;;;;5005922;28;20465;-76
2022/09/20 11:09:39;;;;;;;3.40;1.53;;;19.10;94.90;;;;;;5009262;28;20495;-75
2022/09/20 11:12:14;;;;;;;2.50;1.50;;;19.60;94.60;;;;;;5008863;28;21025;-74
2022/09/20 11:14:48;;;;;;;4.47;1.50;;;20.40;94.50;;;;;;5010342;28;20457;-75
2022/09/20 11:17:23;;;;;;;2.83;2.50;;;20.90;92.20;;;;;;5006407;28;20507;-75
2022/09/20 11:19:59;;;;;;;7.53;5.27;;;20.90;92.00;;;;;;5005892;28;20499;-76
2022/09/20 11:22:34;;;;;;;4.60;2.20;;;20.70;92.50;;;;;;5009587;28;20467;-75
2022/09/20 11:25:06;;;;;;;4.20;1.60;;;20.30;92.20;;;;;;5008564;28;20468;-75
2022/09/20 11:27:40;;;;;;;3.00;1.57;;;20.10;92.30;;;;;;4997282;28;20457;-75
2022/09/20 11:30:16;;;;;;;3.50;1.80;;;19.90;92.20;;;;;;5008382;28;21045;-75
2022/09/20 11:32:49;;;;;;;3.00;1.70;;;19.70;92.80;;;;;;5007880;28;20493;-75
2022/09/20 11:35:28;;;;;;;3.40;1.80;;;19.60;93.70;;;;;;5005568;28;20470;-75
2022/09/20 11:38:03;;;;;;;3.93;1.70;;;19.60;93.30;;;;;;5004152;28;20460;-75
2022/09/20 11:40:34;;;;;;;2.00;1.40;;;19.50;93.20;;;;;;5005054;28;20459;-76
2022/09/20 11:43:06;;;;;;;3.57;1.70;;;19.30;93.50;;;;;;5006222;28;20565;-75
2022/09/20 11:45:37;;;;;;;6.37;2.20;;;19.00;93.80;;;;;;4999268;28;20875;-72
2022/09/20 11:48:13;;;;;;;4.73;1.77;;;18.70;93.70;;;;;;5007238;28;21048;-72
2022/09/20 11:51:15;;;;;;;5.10;2.10;;;18.40;93.50;;;;;;5008009;28;20979;-72
2022/09/20 11:54:07;;;;;;;4.63;2.57;;;18.20;93.90;;;;;;5002731;28;20527;-72
2022/09/20 11:56:34;;;;;;;2.33;1.70;;;18.00;94.00;;;;;;5015530;28;20835;-75
2022/09/20 11:59:04;;;;;;;3.10;1.40;;;18.10;94.60;;;;;;4996915;28;20972;-74
2022/09/20 12:01:36;;;;;;;3.70;1.73;;;18.10;94.00;;;;;;5001601;28;20476;-73
2022/09/20 12:04:08;;;;;;;3.83;1.77;;;18.70;94.20;;;;;;5006982;28;20462;-74
2022/09/20 12:06:38;;;;;;;2.87;1.60;;;19.30;94.40;;;;;;5006564;28;20471;-76
2022/09/20 12:09:21;;;;;;;3.17;1.77;;;20.20;93.70;;;;;;5001186;28;20497;-75
2022/09/20 12:11:48;;;;;;;3.83;1.80;;;20.80;91.70;;;;;;5008395;28;20563;-76
2022/09/20 12:14:19;;;;;;;2.70;1.80;;;21.40;91.00;;;;;;5009076;28;20520;-76
2022/09/20 12:16:49;;;;;;;2.70;1.47;;;21.80;87.80;;;;;;5009765;28;20457;-73
2022/09/20 12:19:37;;;;;;;3.73;1.57;;;21.80;86.70;;;;;;5005562;28;20485;-74
2022/09/20 12:22:28;;;;;;;3.00;1.43;;;21.90;85.10;;;;;;5012020;28;20478;-77
2022/09/20 12:25:35;;;;;;;2.97;1.67;;;21.90;84.00;;;;;;5003879;28;20806;-75
2022/09/20 12:28:04;;;;;;;3.33;1.50;;;22.00;85.90;;;;;;4998961;28;20540;-75
2022/09/20 12:30:32;;;;;;;3.70;1.77;;;22.00;83.40;;;;;;5005966;28;20525;-75
2022/09/20 12:33:02;;;;;;;3.80;1.40;;;21.30;82.20;;;;;;4998900;28;20555;-75
2022/09/20 12:36:13;;;;;;;5.27;1.53;;;21.10;85.50;;;;;;4997400;28;20888;-76
2022/09/20 12:39:05;;;;;;;4.70;1.50;;;21.80;85.50;;;;;;5002388;28;20539;-75
2022/09/20 12:41:47;;;;;;;4.13;1.80;;;22.40;84.30;;;;;;5003386;28;21010;-86
2022/09/20 12:44:26;;;;;;;2.30;1.20;;;22.80;83.90;;;;;;5004708;28;20462;-75
2022/09/20 12:46:55;;;;;;;4.63;2.00;;;23.20;83.50;;;;;;5005559;28;20457;-75
2022/09/20 12:55:39;;;;;;;4.30;1.70;;;24.70;78.30;;;;;;5009152;28;20477;-74
2022/09/20 12:58:23;;;;;;;2.50;1.40;;;24.60;75.80;;;;;;5002350;28;20538;-75
2022/09/20 13:01:12;;;;;;;3.10;1.90;;;24.00;78.00;;;;;;4995822;28;20548;-74
2022/09/20 13:03:41;;;;;;;2.67;1.43;;;23.50;81.70;;;;;;4996302;28;21000;-75
2022/09/20 13:06:26;;;;;;;2.13;1.67;;;23.10;80.80;;;;;;5011240;28;21011;-75
2022/09/20 13:09:04;;;;;;;3.50;1.77;;;22.70;81.60;;;;;;5010026;28;20855;-74
2022/09/20 13:11:39;;;;;;;3.60;1.90;;;22.00;82.90;;;;;;4995579;28;20539;-75
2022/09/20 13:14:13;;;;;;;4.40;1.70;;;21.50;84.00;;;;;;5006969;28;20503;-75
2022/09/20 13:16:49;;;;;;;3.20;1.63;;;21.10;85.10;;;;;;5013185;28;20499;-74
2022/09/20 13:19:20;;;;;;;2.20;1.30;;;20.80;85.40;;;;;;5001055;28;21271;-75
2022/09/20 13:21:56;;;;;;;2.57;1.50;;;20.60;84.50;;;;;;4998466;28;21047;-75
2022/09/20 13:24:25;;;;;;;2.33;1.30;;;20.40;84.30;;;;;;4998063;28;20892;-74
2022/09/20 13:26:55;;;;;;;2.87;1.57;;;20.20;84.40;;;;;;5004559;28;20495;-74
2022/09/20 13:29:29;;;;;;;3.37;1.50;;;19.90;84.40;;;;;;5006073;28;20477;-75
2022/09/20 13:31:56;;;;;;;3.20;1.27;;;19.70;84.40;;;;;;4996971;28;20875;-75
2022/09/20 13:34:25;;;;;;;2.27;1.30;;;19.40;84.30;;;;;;5003661;28;20461;-74
2022/09/20 13:36:56;;;;;;;4.50;1.70;;;19.00;83.90;;;;;;4999549;28;20491;-74
2022/09/20 13:39:29;;;;;;;3.27;1.60;;;18.60;84.80;;;;;;5000928;28;20791;-75
2022/09/20 13:42:01;;;;;;;2.60;1.57;;;18.40;87.20;;;;;;5005918;28;20487;-74
2022/09/20 13:44:32;;;;;;;3.87;1.73;;;18.20;88.70;;;;;;5005527;28;20471;-74
2022/09/20 13:46:59;;;;;;;3.90;1.60;;;17.90;89.60;;;;;;5005631;28;20467;-73
2022/09/20 13:49:32;;;;;;;4.73;2.20;;;17.70;90.40;;;;;;5002035;28;20456;-74
2022/09/20 13:51:59;;;;;;;4.63;2.17;;;17.50;91.10;;;;;;5007242;28;20852;-74
2022/09/20 13:54:28;;;;;;;2.97;1.70;;;17.30;91.70;;;;;;5005796;28;20453;-74